createdAt,value
2024-05-09T00:00:39.890Z,246.53
2024-05-09T00:03:08.368Z,284.37
2024-05-09T00:05:36.921Z,256.93
2024-05-09T00:08:04.381Z,293.20
2024-05-09T00:10:36.378Z,298.30
2024-05-09T00:13:06.293Z,260.23
2024-05-09T00:15:33.939Z,250.87
2024-05-09T00:18:01.253Z,267.57
2024-05-09T00:20:36.458Z,266.07
2024-05-09T00:23:11.076Z,274.10
2024-05-09T00:25:39.019Z,245.37
2024-05-09T00:28:06.221Z,230.03
2024-05-09T00:30:35.497Z,227.97
2024-05-09T00:33:08.253Z,190.13
2024-05-09T00:35:36.559Z,209.83
2024-05-09T00:38:03.978Z,209.73
2024-05-09T00:40:41.632Z,231.30
2024-05-09T00:43:14.594Z,225.60
2024-05-09T00:45:42.339Z,223.30
2024-05-09T00:48:13.426Z,222.60
2024-05-09T00:50:43.449Z,239.27
2024-05-09T00:53:11.665Z,271.73
2024-05-09T00:55:40.174Z,420.43
2024-05-09T00:58:09.569Z,394.43
2024-05-09T01:00:39.917Z,442.13
2024-05-09T01:03:10.291Z,463.80
2024-05-09T01:05:39.584Z,460.33
2024-05-09T01:08:07.352Z,437.10
2024-05-09T01:10:35.589Z,467.87
2024-05-09T01:13:04.253Z,440.50
2024-05-09T01:15:31.382Z,486.37
2024-05-09T01:18:00.901Z,378.03
2024-05-09T01:20:37.251Z,321.70
2024-05-09T01:23:09.941Z,302.00
2024-05-09T01:25:37.129Z,194.83
2024-05-09T01:28:03.937Z,241.70
2024-05-09T01:30:34.993Z,229.90
2024-05-09T01:33:05.638Z,204.63
2024-05-09T01:35:33.722Z,162.23
2024-05-09T01:38:00.496Z,149.27
2024-05-09T01:40:36.345Z,153.03
2024-05-09T01:43:06.092Z,169.50
2024-05-09T01:45:32.909Z,194.20
2024-05-09T01:47:59.882Z,298.97
2024-05-09T01:50:37.959Z,292.67
2024-05-09T01:53:09.627Z,272.33
2024-05-09T01:55:36.476Z,153.23
2024-05-09T01:58:03.129Z,240.83
2024-05-09T02:00:38.361Z,364.97
2024-05-09T02:03:12.663Z,587.00
2024-05-09T02:05:42.854Z,667.67
2024-05-09T02:08:20.962Z,692.70
2024-05-09T02:10:49.333Z,809.57
2024-05-09T02:13:20.246Z,652.20
2024-05-09T02:15:46.984Z,697.20
2024-05-09T02:18:14.253Z,596.27
2024-05-09T02:20:42.375Z,533.87
2024-05-09T02:23:09.956Z,393.07
2024-05-09T02:25:36.990Z,245.77
2024-05-09T02:28:03.762Z,206.90
2024-05-09T02:30:38.711Z,188.97
2024-05-09T02:33:13.009Z,177.27
2024-05-09T02:35:41.400Z,137.43
2024-05-09T02:38:09.451Z,137.80
2024-05-09T02:40:38.605Z,146.27
2024-05-09T02:43:09.066Z,162.17
2024-05-09T02:45:37.089Z,191.10
2024-05-09T02:48:04.165Z,275.80
2024-05-09T02:50:37.792Z,282.97
2024-05-09T02:53:13.841Z,291.67
2024-05-09T02:55:41.927Z,256.70
2024-05-09T02:58:09.228Z,235.40
2024-05-09T03:00:39.980Z,211.20
2024-05-09T03:03:14.187Z,168.03
2024-05-09T03:05:43.376Z,156.97
2024-05-09T03:08:10.286Z,140.27
2024-05-09T03:10:38.724Z,139.07
2024-05-09T03:13:12.765Z,140.83
2024-05-09T03:15:40.663Z,139.47
2024-05-09T03:18:07.639Z,136.53
2024-05-09T03:20:36.139Z,136.13
2024-05-09T03:23:05.200Z,140.37
2024-05-09T03:25:32.373Z,140.87
2024-05-09T03:27:59.428Z,146.40
2024-05-09T03:30:38.093Z,144.77
2024-05-09T03:33:17.671Z,146.07
2024-05-09T03:35:46.038Z,165.30
2024-05-09T03:38:12.807Z,277.33
2024-05-09T03:40:47.411Z,334.93
2024-05-09T03:43:14.833Z,411.03
2024-05-09T03:45:45.621Z,473.10
2024-05-09T03:48:13.018Z,516.30
2024-05-09T03:50:39.868Z,492.97
2024-05-09T03:53:10.567Z,468.20
2024-05-09T03:55:37.279Z,461.83
2024-05-09T03:58:14.825Z,466.00
2024-05-09T04:00:42.443Z,379.13
2024-05-09T04:03:11.401Z,324.70
2024-05-09T04:05:42.093Z,256.97
2024-05-09T04:08:10.263Z,205.37
2024-05-09T04:10:37.277Z,165.43
2024-05-09T04:13:04.403Z,132.80
2024-05-09T04:15:31.464Z,130.63
2024-05-09T04:17:58.463Z,117.27
2024-05-09T04:20:35.874Z,131.43
2024-05-09T04:23:07.241Z,127.97
2024-05-09T04:25:35.148Z,132.47
2024-05-09T04:28:01.819Z,129.13
2024-05-09T04:30:37.383Z,121.23
2024-05-09T04:33:09.276Z,118.43
2024-05-09T04:35:38.426Z,117.77
2024-05-09T04:38:05.749Z,113.23
2024-05-09T04:40:36.965Z,114.07
2024-05-09T04:43:14.497Z,114.33
2024-05-09T04:45:43.254Z,107.83
2024-05-09T04:48:10.205Z,108.37
2024-05-09T04:50:39.058Z,109.30
2024-05-09T04:53:09.267Z,109.33
2024-05-09T04:55:37.417Z,111.33
2024-05-09T04:58:05.278Z,104.43
2024-05-09T05:00:37.148Z,104.70
2024-05-09T05:03:13.896Z,101.67
2024-05-09T05:05:44.043Z,101.17
2024-05-09T05:08:13.241Z,104.83
2024-05-09T05:10:40.788Z,100.07
2024-05-09T05:13:18.249Z,99.03
2024-05-09T05:15:46.454Z,102.43
2024-05-09T05:18:15.155Z,100.87
2024-05-09T05:20:42.266Z,100.77
2024-05-09T05:23:14.212Z,98.03
2024-05-09T05:25:41.983Z,99.50
2024-05-09T05:28:08.662Z,99.17
2024-05-09T05:30:39.245Z,98.60
2024-05-09T05:33:07.168Z,101.97
2024-05-09T05:35:34.803Z,106.60
2024-05-09T05:38:02.273Z,100.67
2024-05-09T05:40:36.203Z,99.67
2024-05-09T05:43:18.569Z,98.30
2024-05-09T05:45:47.302Z,105.57
2024-05-09T05:48:16.848Z,102.13
2024-05-09T05:50:45.156Z,100.30
2024-05-09T05:53:12.170Z,100.17
2024-05-09T05:55:40.419Z,97.20
2024-05-09T05:58:12.040Z,98.83
2024-05-09T06:00:41.553Z,97.17
2024-05-09T06:03:10.220Z,100.97
2024-05-09T06:05:39.808Z,98.80
2024-05-09T06:08:07.346Z,99.07
2024-05-09T06:10:38.854Z,96.07
2024-05-09T06:13:10.486Z,98.43
2024-05-09T06:15:37.259Z,98.60
2024-05-09T06:18:09.073Z,97.13
2024-05-09T06:20:38.116Z,94.10
2024-05-09T06:23:06.965Z,96.63
2024-05-09T06:25:35.017Z,97.67
2024-05-09T06:28:02.053Z,93.33
2024-05-09T06:30:37.182Z,98.47
2024-05-09T06:33:07.817Z,99.03
2024-05-09T06:35:35.320Z,98.90
2024-05-09T06:38:02.592Z,98.87
2024-05-09T06:40:37.081Z,104.37
2024-05-09T06:43:11.297Z,97.87
2024-05-09T06:45:39.684Z,94.97
2024-05-09T06:48:07.464Z,97.93
2024-05-09T06:50:37.889Z,98.83
2024-05-09T06:53:06.305Z,102.53
2024-05-09T06:55:34.182Z,99.90
2024-05-09T06:58:00.957Z,98.67
2024-05-09T07:00:35.380Z,100.80
2024-05-09T07:03:16.052Z,102.03
2024-05-09T07:05:45.461Z,101.57
2024-05-09T07:08:13.251Z,96.53
2024-05-09T07:10:40.027Z,96.87
2024-05-09T07:13:14.273Z,101.77
2024-05-09T07:15:42.047Z,99.77
2024-05-09T07:18:13.936Z,96.00
2024-05-09T07:20:42.184Z,101.33
2024-05-09T07:23:10.619Z,96.20
2024-05-09T07:25:37.792Z,98.07
2024-05-09T07:28:04.840Z,94.20
2024-05-09T07:30:34.329Z,96.43
2024-05-09T07:33:05.371Z,99.33
2024-05-09T07:35:32.447Z,93.47
2024-05-09T07:37:59.505Z,98.23
2024-05-09T07:40:33.296Z,95.20
2024-05-09T07:43:13.239Z,94.40
2024-05-09T07:45:49.894Z,92.77
2024-05-09T07:53:39.233Z,113.40
2024-05-09T07:56:13.844Z,100.13
2024-05-09T07:58:43.382Z,103.43
2024-05-09T08:01:12.207Z,116.47
2024-05-09T08:03:39.162Z,111.90
2024-05-09T08:06:09.008Z,117.17
2024-05-09T08:08:35.669Z,133.47
2024-05-09T08:11:02.955Z,127.90
2024-05-09T08:13:29.708Z,128.13
2024-05-09T08:15:56.448Z,126.20
2024-05-09T08:18:23.438Z,126.97
2024-05-09T08:20:51.867Z,118.53
2024-05-09T08:23:19.526Z,120.33
2024-05-09T08:25:46.241Z,104.90
2024-05-09T08:28:13.083Z,110.03
2024-05-09T08:30:40.089Z,100.00
2024-05-09T08:33:07.770Z,99.90
2024-05-09T08:35:35.324Z,124.07
2024-05-09T08:38:06.784Z,135.17
2024-05-09T08:40:36.453Z,139.10
2024-05-09T08:43:10.460Z,144.40
2024-05-09T08:45:42.695Z,176.93
2024-05-09T08:48:12.412Z,189.67
2024-05-09T08:50:40.952Z,205.23
2024-05-09T08:53:08.574Z,261.50
2024-05-09T08:55:40.170Z,269.50
2024-05-09T08:58:12.740Z,320.70
2024-05-09T09:00:41.974Z,358.63
2024-05-09T09:03:12.783Z,355.63
2024-05-09T09:05:40.890Z,347.77
2024-05-09T09:08:08.747Z,329.53
2024-05-09T09:10:36.104Z,352.60
2024-05-09T09:13:09.620Z,342.77
2024-05-09T09:15:50.009Z,342.47
2024-05-09T09:18:19.867Z,237.87
2024-05-09T09:20:46.737Z,262.90
2024-05-09T09:23:14.109Z,268.70
2024-05-09T09:25:40.977Z,246.17
2024-05-09T09:28:12.681Z,221.53
2024-05-09T09:30:40.975Z,175.70
2024-05-09T09:33:12.009Z,155.90
2024-05-09T09:35:41.988Z,154.60
2024-05-09T09:38:10.641Z,106.13
2024-05-09T09:40:44.970Z,133.13
2024-05-09T09:43:22.101Z,118.43
2024-05-09T09:45:51.546Z,126.33
2024-05-09T09:48:20.284Z,115.27
2024-05-09T09:50:55.266Z,110.50
2024-05-09T09:53:23.171Z,150.40
2024-05-09T09:55:53.532Z,120.27
2024-05-09T09:58:21.566Z,121.10
2024-05-09T10:00:48.520Z,119.57
2024-05-09T10:03:16.188Z,124.67
2024-05-09T10:05:46.414Z,112.40
2024-05-09T10:08:18.203Z,99.27
2024-05-09T10:10:48.281Z,104.40
2024-05-09T10:13:15.208Z,106.03
2024-05-09T10:15:53.177Z,94.97
2024-05-09T10:18:46.767Z,111.60
2024-05-09T10:21:19.471Z,114.17
2024-05-09T10:24:03.495Z,102.13
2024-05-09T10:26:34.372Z,95.40
2024-05-09T10:29:14.139Z,102.63
2024-05-09T10:31:42.510Z,91.40
2024-05-09T10:34:20.862Z,90.63
2024-05-09T10:36:55.228Z,87.77
2024-05-09T10:39:22.425Z,96.87
2024-05-09T10:41:57.490Z,90.67
2024-05-09T10:44:24.180Z,92.00
2024-05-09T10:46:53.748Z,89.97
2024-05-09T10:49:21.714Z,95.13
2024-05-09T10:51:48.763Z,96.20
2024-05-09T10:54:15.716Z,91.03
2024-05-09T10:56:42.421Z,85.90
2024-05-09T10:59:09.015Z,90.47
2024-05-09T11:01:36.532Z,93.37
2024-05-09T11:04:04.079Z,91.87
2024-05-09T11:06:31.140Z,92.17
2024-05-09T11:08:58.100Z,97.87
2024-05-09T11:11:26.984Z,92.60
2024-05-09T11:13:53.628Z,92.80
2024-05-09T11:16:21.385Z,94.50
2024-05-09T11:18:56.414Z,94.10
2024-05-09T11:21:24.275Z,96.60
2024-05-09T11:23:51.327Z,91.97
2024-05-09T11:26:21.453Z,96.50
2024-05-09T11:28:48.260Z,92.37
2024-05-09T11:31:14.941Z,94.80
2024-05-09T11:33:47.751Z,96.77
2024-05-09T11:36:15.047Z,91.10
2024-05-09T11:38:41.884Z,90.03
2024-05-09T11:41:08.636Z,95.20
2024-05-09T11:43:35.288Z,98.57
2024-05-09T11:46:06.216Z,96.60
2024-05-09T11:48:33.025Z,109.10
2024-05-09T11:50:59.771Z,103.93
2024-05-09T11:53:26.403Z,103.90
2024-05-09T11:55:53.376Z,100.43
2024-05-09T11:58:21.428Z,121.37
2024-05-09T12:00:48.382Z,135.67
2024-05-09T12:03:15.237Z,129.00
2024-05-09T12:05:42.189Z,146.93
2024-05-09T12:08:10.062Z,126.40
2024-05-09T12:11:02.608Z,193.17
2024-05-09T12:13:29.288Z,186.03
2024-05-09T12:15:56.046Z,155.70
2024-05-09T12:18:24.811Z,128.57
2024-05-09T12:20:51.432Z,137.20
2024-05-09T12:23:22.179Z,132.87
2024-05-09T12:25:49.855Z,128.80
2024-05-09T12:28:16.809Z,137.67
2024-05-09T12:30:43.724Z,115.50
2024-05-09T12:33:12.535Z,118.67
2024-05-09T12:35:41.759Z,122.37
2024-05-09T12:38:09.808Z,124.60
2024-05-09T12:40:38.640Z,104.00
2024-05-09T12:43:08.111Z,104.93
2024-05-09T12:45:36.019Z,104.10
2024-05-09T12:48:06.874Z,109.77
2024-05-09T12:51:01.711Z,116.97
2024-05-09T12:53:28.347Z,112.93
2024-05-09T12:55:59.930Z,103.20
2024-05-09T12:58:29.055Z,106.37
2024-05-09T13:00:55.830Z,104.77
2024-05-09T13:03:22.784Z,101.50
2024-05-09T13:05:50.655Z,99.47
2024-05-09T13:08:17.680Z,98.87
2024-05-09T13:10:44.522Z,99.93
2024-05-09T13:13:11.590Z,100.53
2024-05-09T13:15:41.876Z,100.00
2024-05-09T13:18:11.861Z,98.13
2024-05-09T13:20:38.505Z,97.83
2024-05-09T13:23:07.846Z,97.33
2024-05-09T13:25:38.383Z,98.10
2024-05-09T13:28:06.000Z,93.83
2024-05-09T13:30:39.398Z,98.07
2024-05-09T13:33:11.687Z,104.50
2024-05-09T13:35:40.763Z,98.23
2024-05-09T13:38:08.807Z,98.57
2024-05-09T13:40:36.580Z,99.17
2024-05-09T13:43:04.903Z,97.17
2024-05-09T13:45:32.273Z,99.73
2024-05-09T13:48:06.544Z,102.67
2024-05-09T13:50:36.607Z,98.93
2024-05-09T13:53:08.406Z,99.07
2024-05-09T13:55:40.086Z,95.50
2024-05-09T13:58:08.142Z,97.97
2024-05-09T14:00:44.860Z,102.23
2024-05-09T14:03:20.819Z,99.20
2024-05-09T14:05:54.443Z,101.20
2024-05-09T14:08:22.791Z,101.03
2024-05-09T14:10:51.448Z,112.00
2024-05-09T14:13:18.503Z,105.47
2024-05-09T14:15:46.833Z,113.60
2024-05-09T14:18:14.440Z,116.27
2024-05-09T14:20:46.776Z,119.67
2024-05-09T14:23:14.391Z,138.67
2024-05-09T14:25:43.004Z,121.40
2024-05-09T14:28:21.922Z,104.83
2024-05-09T14:30:51.761Z,96.47
2024-05-09T14:33:23.670Z,98.93
2024-05-09T14:35:50.523Z,100.40
2024-05-09T14:38:18.298Z,99.10
2024-05-09T14:40:44.992Z,101.70
2024-05-09T14:43:13.456Z,93.93
2024-05-09T14:45:40.942Z,110.10
2024-05-09T14:48:09.860Z,106.23
2024-05-09T14:50:39.250Z,97.10
2024-05-09T14:53:08.151Z,103.03
2024-05-09T14:55:38.190Z,101.50
2024-05-09T14:58:07.321Z,100.43
2024-05-09T15:00:41.680Z,110.40
2024-05-09T15:03:11.738Z,100.87
2024-05-09T15:05:38.829Z,127.13
2024-05-09T15:08:07.006Z,194.37
2024-05-09T15:10:36.192Z,108.83
2024-05-09T15:13:04.682Z,96.17
2024-05-09T15:15:31.609Z,108.00
2024-05-09T15:17:59.085Z,99.43
2024-05-09T15:20:33.202Z,172.57
2024-05-09T15:23:02.902Z,114.90
2024-05-09T15:25:29.875Z,121.93
2024-05-09T15:27:56.911Z,101.33
2024-05-09T15:30:30.894Z,103.83
2024-05-09T15:33:00.899Z,109.10
2024-05-09T15:35:27.947Z,91.73
2024-05-09T15:37:55.063Z,96.47
2024-05-09T15:40:31.033Z,87.73
2024-05-09T15:43:05.707Z,91.10
2024-05-09T15:45:32.672Z,94.37
2024-05-09T15:48:00.317Z,88.97
2024-05-09T15:50:35.948Z,91.17
2024-05-09T15:53:06.992Z,94.83
2024-05-09T15:55:34.917Z,93.60
2024-05-09T15:58:03.198Z,94.63
2024-05-09T16:00:37.551Z,93.13
2024-05-09T16:03:08.627Z,92.43
2024-05-09T16:05:35.600Z,95.40
2024-05-09T16:08:02.823Z,92.53
2024-05-09T16:10:32.959Z,90.87
2024-05-09T16:13:02.286Z,102.23
2024-05-09T16:15:29.681Z,108.30
2024-05-09T16:17:59.322Z,107.03
2024-05-09T16:20:34.799Z,105.23
2024-05-09T16:23:06.584Z,101.17
2024-05-09T16:25:33.439Z,99.63
2024-05-09T16:28:01.750Z,101.23
2024-05-09T16:30:34.507Z,100.53
2024-05-09T16:33:04.273Z,100.83
2024-05-09T16:35:31.940Z,103.23
2024-05-09T16:37:58.735Z,102.83
2024-05-09T16:40:34.391Z,103.07
2024-05-09T16:43:06.288Z,98.57
2024-05-09T16:45:33.454Z,98.13
2024-05-09T16:48:01.490Z,109.27
2024-05-09T16:50:32.809Z,106.33
2024-05-09T16:53:02.678Z,109.73
2024-05-09T16:55:29.694Z,105.70
2024-05-09T16:57:57.468Z,115.50
2024-05-09T17:00:35.269Z,116.23
2024-05-09T17:03:08.518Z,120.97
2024-05-09T17:05:36.692Z,126.10
2024-05-09T17:08:04.195Z,137.47
2024-05-09T17:10:33.800Z,125.17
2024-05-09T17:13:05.500Z,127.27
2024-05-09T17:15:33.864Z,126.33
2024-05-09T17:18:01.801Z,131.43
2024-05-09T17:20:33.470Z,120.40
2024-05-09T17:23:03.869Z,119.90
2024-05-09T17:25:30.727Z,138.40
2024-05-09T17:27:59.592Z,134.80
2024-05-09T17:30:32.430Z,140.47
2024-05-09T17:33:07.810Z,135.73
2024-05-09T17:35:36.319Z,131.60
2024-05-09T17:38:03.186Z,148.03
2024-05-09T17:40:34.850Z,152.90
2024-05-09T17:43:04.819Z,159.07
2024-05-09T17:45:32.413Z,158.63
2024-05-09T17:47:59.634Z,171.67
2024-05-09T17:50:31.928Z,175.97
2024-05-09T17:53:02.972Z,176.10
2024-05-09T17:55:29.956Z,171.90
2024-05-09T17:57:57.447Z,177.27
2024-05-09T18:00:33.718Z,171.97
2024-05-09T18:03:06.391Z,172.17
2024-05-09T18:05:36.046Z,167.80
2024-05-09T18:08:03.663Z,170.17
2024-05-09T18:10:36.335Z,176.47
2024-05-09T18:13:07.104Z,173.60
2024-05-09T18:15:34.275Z,178.93
2024-05-09T18:18:02.030Z,176.60
2024-05-09T18:20:37.893Z,175.47
2024-05-09T18:23:10.711Z,172.63
2024-05-09T18:25:37.611Z,177.20
2024-05-09T18:28:05.165Z,179.03
2024-05-09T18:30:35.303Z,175.37
2024-05-09T18:33:05.398Z,174.80
2024-05-09T18:35:33.512Z,175.40
2024-05-09T18:38:00.518Z,170.87
2024-05-09T18:40:33.996Z,168.93
2024-05-09T18:43:05.493Z,165.63
2024-05-09T18:45:33.785Z,155.03
2024-05-09T18:48:00.851Z,149.20
2024-05-09T18:50:35.062Z,142.43
2024-05-09T18:53:12.635Z,141.07
2024-05-09T18:55:41.134Z,138.07
2024-05-09T18:58:07.929Z,115.93
2024-05-09T19:00:38.424Z,109.60
2024-05-09T19:03:13.057Z,103.53
2024-05-09T19:05:43.223Z,99.03
2024-05-09T19:08:11.147Z,94.60
2024-05-09T19:10:39.032Z,90.87
2024-05-09T19:13:10.891Z,83.77
2024-05-09T19:15:47.942Z,83.13
2024-05-09T19:18:15.451Z,80.80
2024-05-09T19:20:43.171Z,81.47
2024-05-09T19:23:11.637Z,80.93
2024-05-09T19:25:40.610Z,86.00
2024-05-09T19:28:07.413Z,87.80
2024-05-09T19:30:39.768Z,90.57
2024-05-09T19:33:10.808Z,101.70
2024-05-09T19:35:38.957Z,105.70
2024-05-09T19:38:06.099Z,115.77
2024-05-09T19:40:34.350Z,118.03
2024-05-09T19:43:03.037Z,124.33
2024-05-09T19:45:30.359Z,143.33
2024-05-09T19:47:57.488Z,154.30
2024-05-09T19:50:32.429Z,161.20
2024-05-09T19:53:08.562Z,171.17
2024-05-09T19:55:35.344Z,162.97
2024-05-09T19:58:05.215Z,162.07
2024-05-09T20:00:39.863Z,152.33
2024-05-09T20:03:10.210Z,128.00
2024-05-09T20:05:37.875Z,121.03
2024-05-09T20:08:05.951Z,120.90
2024-05-09T20:10:35.181Z,112.17
2024-05-09T20:13:04.579Z,114.80
2024-05-09T20:15:34.129Z,105.00
2024-05-09T20:18:01.128Z,108.10
2024-05-09T20:20:36.890Z,99.03
2024-05-09T20:23:07.454Z,98.53
2024-05-09T20:25:35.129Z,94.57
2024-05-09T20:28:01.913Z,96.03
2024-05-09T20:30:32.856Z,94.00
2024-05-09T20:33:06.973Z,95.07
2024-05-09T20:35:35.303Z,95.40
2024-05-09T20:38:03.236Z,90.03
2024-05-09T20:40:34.733Z,96.87
2024-05-09T20:43:05.265Z,90.77
2024-05-09T20:45:32.116Z,90.20
2024-05-09T20:47:59.086Z,94.80
2024-05-09T20:50:35.855Z,99.50
2024-05-09T20:53:09.592Z,97.13
2024-05-09T20:55:36.785Z,96.37
2024-05-09T20:58:03.556Z,95.67
2024-05-09T21:00:38.851Z,101.60
2024-05-09T21:03:09.310Z,104.70
2024-05-09T21:05:36.214Z,102.50
2024-05-09T21:08:03.173Z,100.03
2024-05-09T21:10:32.590Z,104.77
2024-05-09T21:13:00.599Z,101.50
2024-05-09T21:15:27.219Z,101.20
2024-05-09T21:17:53.824Z,100.83
2024-05-09T21:20:24.231Z,102.47
2024-05-09T21:22:57.466Z,104.63
2024-05-09T21:25:24.108Z,99.73
2024-05-09T21:27:50.837Z,104.00
2024-05-09T21:30:26.777Z,98.47
2024-05-09T21:32:59.617Z,107.07
2024-05-09T21:35:26.365Z,107.53
2024-05-09T21:37:53.003Z,104.70
2024-05-09T21:40:27.285Z,107.90
2024-05-09T21:43:01.096Z,105.07
2024-05-09T21:45:27.915Z,105.30
2024-05-09T21:47:54.783Z,104.07
2024-05-09T21:50:28.078Z,104.93
2024-05-09T21:52:59.203Z,101.63
2024-05-09T21:55:25.862Z,105.77
2024-05-09T21:57:52.499Z,107.13
2024-05-09T22:00:28.775Z,106.27
2024-05-09T22:03:02.472Z,110.67
2024-05-09T22:05:29.613Z,112.23
2024-05-09T22:07:57.023Z,108.83
2024-05-09T22:10:30.527Z,112.47
2024-05-09T22:13:00.876Z,113.43
2024-05-09T22:15:27.545Z,118.43
2024-05-09T22:17:56.354Z,112.00
2024-05-09T22:20:32.836Z,114.63
2024-05-09T22:23:04.094Z,109.30
2024-05-09T22:25:31.861Z,113.23
2024-05-09T22:27:59.187Z,110.40
2024-05-09T22:30:34.340Z,111.27
2024-05-09T22:33:05.806Z,112.60
2024-05-09T22:35:32.988Z,113.03
2024-05-09T22:37:59.781Z,108.13
2024-05-09T22:40:38.153Z,111.97
2024-05-09T22:43:13.122Z,105.30
2024-05-09T22:45:39.999Z,105.57
2024-05-09T22:48:08.087Z,110.00
2024-05-09T22:50:34.981Z,106.17
2024-05-09T22:53:01.714Z,107.53
2024-05-09T22:55:29.943Z,104.77
2024-05-09T22:57:56.608Z,109.70
2024-05-09T23:00:31.254Z,107.73
2024-05-09T23:03:00.453Z,110.10
2024-05-09T23:05:27.513Z,106.93
2024-05-09T23:07:54.276Z,102.70
2024-05-09T23:10:27.302Z,106.13
2024-05-09T23:12:58.828Z,106.37
2024-05-09T23:15:25.587Z,107.17
2024-05-09T23:17:52.403Z,114.70
2024-05-09T23:20:29.747Z,109.00
2024-05-09T23:23:03.587Z,118.60
2024-05-09T23:25:30.282Z,118.63
2024-05-09T23:27:57.072Z,117.60
2024-05-09T23:30:33.320Z,121.70
2024-05-09T23:33:05.702Z,116.00
2024-05-09T23:35:32.494Z,121.70
2024-05-09T23:37:59.204Z,122.47
2024-05-09T23:40:36.884Z,126.97
2024-05-09T23:43:06.976Z,122.90
2024-05-09T23:45:34.013Z,122.07
2024-05-09T23:48:01.167Z,121.20
2024-05-09T23:50:34.392Z,132.60
2024-05-09T23:53:04.675Z,129.80
2024-05-09T23:55:32.036Z,132.27
2024-05-09T23:57:59.206Z,135.70
